sensor_id;sensor_type;location;lat;lon;timestamp;P1;durP1;ratioP1;P2;durP2;ratioP2
47337;SDS011;33069;51.970;5.892;2023-08-12T00:00:53;50.35;;;32.88;;
47337;SDS011;33069;51.970;5.892;2023-08-12T00:03:39;41.80;;;30.38;;
47337;SDS011;33069;51.970;5.892;2023-08-12T00:06:25;38.78;;;28.27;;
47337;SDS011;33069;51.970;5.892;2023-08-12T00:09:11;44.30;;;31.00;;
47337;SDS011;33069;51.970;5.892;2023-08-12T00:11:57;46.05;;;31.42;;
47337;SDS011;33069;51.970;5.892;2023-08-12T00:14:43;38.15;;;28.40;;
47337;SDS011;33069;51.970;5.892;2023-08-12T00:17:29;45.65;;;34.22;;
47337;SDS011;33069;51.970;5.892;2023-08-12T00:20:16;42.65;;;28.85;;
47337;SDS011;33069;51.970;5.892;2023-08-12T00:23:02;46.45;;;28.48;;
47337;SDS011;33069;51.970;5.892;2023-08-12T00:25:49;44.47;;;32.40;;
47337;SDS011;33069;51.970;5.892;2023-08-12T00:28:35;47.00;;;33.03;;
47337;SDS011;33069;51.970;5.892;2023-08-12T00:31:21;35.63;;;28.10;;
47337;SDS011;33069;51.970;5.892;2023-08-12T00:34:07;33.92;;;28.55;;
47337;SDS011;33069;51.970;5.892;2023-08-12T00:36:53;38.13;;;28.23;;
47337;SDS011;33069;51.970;5.892;2023-08-12T00:39:39;45.70;;;32.13;;
47337;SDS011;33069;51.970;5.892;2023-08-12T00:42:25;34.35;;;27.10;;
47337;SDS011;33069;51.970;5.892;2023-08-12T00:45:11;42.70;;;30.58;;
47337;SDS011;33069;51.970;5.892;2023-08-12T00:47:58;40.50;;;30.38;;
47337;SDS011;33069;51.970;5.892;2023-08-12T00:50:44;43.60;;;32.28;;
47337;SDS011;33069;51.970;5.892;2023-08-12T00:53:30;49.95;;;31.92;;
47337;SDS011;33069;51.970;5.892;2023-08-12T00:56:16;42.53;;;29.25;;
47337;SDS011;33069;51.970;5.892;2023-08-12T00:59:03;44.80;;;30.88;;
47337;SDS011;33069;51.970;5.892;2023-08-12T01:01:51;37.25;;;30.33;;
47337;SDS011;33069;51.970;5.892;2023-08-12T01:04:37;41.83;;;28.73;;
47337;SDS011;33069;51.970;5.892;2023-08-12T01:07:23;45.80;;;31.33;;
47337;SDS011;33069;51.970;5.892;2023-08-12T01:10:09;45.60;;;32.83;;
47337;SDS011;33069;51.970;5.892;2023-08-12T01:13:03;38.50;;;29.58;;
47337;SDS011;33069;51.970;5.892;2023-08-12T01:15:58;56.30;;;34.45;;
47337;SDS011;33069;51.970;5.892;2023-08-12T01:18:49;40.15;;;30.30;;
47337;SDS011;33069;51.970;5.892;2023-08-12T01:21:36;39.05;;;30.40;;
47337;SDS011;33069;51.970;5.892;2023-08-12T01:24:31;43.78;;;31.38;;
47337;SDS011;33069;51.970;5.892;2023-08-12T01:27:20;32.83;;;27.88;;
47337;SDS011;33069;51.970;5.892;2023-08-12T01:30:06;44.10;;;33.47;;
47337;SDS011;33069;51.970;5.892;2023-08-12T01:32:58;35.97;;;30.90;;
47337;SDS011;33069;51.970;5.892;2023-08-12T01:35:54;50.00;;;32.22;;
47337;SDS011;33069;51.970;5.892;2023-08-12T01:38:46;50.78;;;36.05;;
47337;SDS011;33069;51.970;5.892;2023-08-12T01:41:35;45.47;;;32.05;;
47337;SDS011;33069;51.970;5.892;2023-08-12T01:44:22;50.90;;;38.00;;
47337;SDS011;33069;51.970;5.892;2023-08-12T01:47:09;34.55;;;30.17;;
47337;SDS011;33069;51.970;5.892;2023-08-12T01:49:58;56.17;;;38.47;;
47337;SDS011;33069;51.970;5.892;2023-08-12T01:52:44;57.45;;;40.67;;
47337;SDS011;33069;51.970;5.892;2023-08-12T01:55:30;52.33;;;36.15;;
47337;SDS011;33069;51.970;5.892;2023-08-12T01:58:16;51.38;;;33.65;;
47337;SDS011;33069;51.970;5.892;2023-08-12T02:01:02;59.30;;;41.30;;
47337;SDS011;33069;51.970;5.892;2023-08-12T02:03:48;43.42;;;33.63;;
47337;SDS011;33069;51.970;5.892;2023-08-12T02:06:33;42.50;;;35.85;;
47337;SDS011;33069;51.970;5.892;2023-08-12T02:09:20;50.63;;;40.20;;
47337;SDS011;33069;51.970;5.892;2023-08-12T02:12:06;61.67;;;44.08;;
47337;SDS011;33069;51.970;5.892;2023-08-12T02:14:52;58.55;;;44.72;;
47337;SDS011;33069;51.970;5.892;2023-08-12T02:17:38;59.63;;;45.15;;
47337;SDS011;33069;51.970;5.892;2023-08-12T02:20:24;92.30;;;74.25;;
47337;SDS011;33069;51.970;5.892;2023-08-12T02:23:10;72.13;;;58.10;;
47337;SDS011;33069;51.970;5.892;2023-08-12T02:25:56;91.85;;;79.65;;
47337;SDS011;33069;51.970;5.892;2023-08-12T02:28:42;67.32;;;50.53;;
47337;SDS011;33069;51.970;5.892;2023-08-12T02:31:28;71.68;;;54.85;;
47337;SDS011;33069;51.970;5.892;2023-08-12T02:34:14;108.80;;;89.00;;
47337;SDS011;33069;51.970;5.892;2023-08-12T02:37:00;115.15;;;90.53;;
47337;SDS011;33069;51.970;5.892;2023-08-12T02:39:47;96.57;;;69.13;;
47337;SDS011;33069;51.970;5.892;2023-08-12T02:42:32;67.72;;;57.72;;
47337;SDS011;33069;51.970;5.892;2023-08-12T02:45:18;103.95;;;79.55;;
47337;SDS011;33069;51.970;5.892;2023-08-12T02:48:05;102.57;;;83.07;;
47337;SDS011;33069;51.970;5.892;2023-08-12T02:50:51;86.35;;;61.03;;
47337;SDS011;33069;51.970;5.892;2023-08-12T02:53:37;113.82;;;85.40;;
47337;SDS011;33069;51.970;5.892;2023-08-12T02:56:23;77.85;;;62.22;;
47337;SDS011;33069;51.970;5.892;2023-08-12T02:59:09;111.40;;;87.00;;
47337;SDS011;33069;51.970;5.892;2023-08-12T03:01:55;86.05;;;62.03;;
47337;SDS011;33069;51.970;5.892;2023-08-12T03:04:41;100.43;;;76.07;;
47337;SDS011;33069;51.970;5.892;2023-08-12T03:07:27;109.25;;;86.47;;
47337;SDS011;33069;51.970;5.892;2023-08-12T03:10:13;75.38;;;57.15;;
47337;SDS011;33069;51.970;5.892;2023-08-12T03:12:59;96.05;;;67.15;;
47337;SDS011;33069;51.970;5.892;2023-08-12T03:15:45;76.22;;;56.15;;
47337;SDS011;33069;51.970;5.892;2023-08-12T03:18:31;76.93;;;54.58;;
47337;SDS011;33069;51.970;5.892;2023-08-12T03:21:17;116.95;;;68.55;;
47337;SDS011;33069;51.970;5.892;2023-08-12T03:24:03;97.03;;;76.78;;
47337;SDS011;33069;51.970;5.892;2023-08-12T03:26:50;96.05;;;64.70;;
47337;SDS011;33069;51.970;5.892;2023-08-12T03:29:36;114.07;;;86.40;;
47337;SDS011;33069;51.970;5.892;2023-08-12T03:32:22;85.35;;;66.50;;
47337;SDS011;33069;51.970;5.892;2023-08-12T03:35:08;78.72;;;57.92;;
47337;SDS011;33069;51.970;5.892;2023-08-12T03:37:54;97.80;;;74.45;;
47337;SDS011;33069;51.970;5.892;2023-08-12T03:40:40;100.88;;;64.07;;
47337;SDS011;33069;51.970;5.892;2023-08-12T03:43:27;98.28;;;63.30;;
47337;SDS011;33069;51.970;5.892;2023-08-12T03:46:13;92.10;;;60.60;;
47337;SDS011;33069;51.970;5.892;2023-08-12T03:48:59;102.20;;;63.25;;
47337;SDS011;33069;51.970;5.892;2023-08-12T03:51:45;110.32;;;86.82;;
47337;SDS011;33069;51.970;5.892;2023-08-12T03:54:31;78.93;;;61.70;;
47337;SDS011;33069;51.970;5.892;2023-08-12T03:57:17;92.00;;;65.80;;
47337;SDS011;33069;51.970;5.892;2023-08-12T04:00:03;85.45;;;61.58;;
47337;SDS011;33069;51.970;5.892;2023-08-12T04:02:49;107.45;;;86.68;;
47337;SDS011;33069;51.970;5.892;2023-08-12T04:05:35;87.03;;;58.47;;
47337;SDS011;33069;51.970;5.892;2023-08-12T04:08:22;97.85;;;71.50;;
47337;SDS011;33069;51.970;5.892;2023-08-12T04:11:09;88.45;;;64.80;;
47337;SDS011;33069;51.970;5.892;2023-08-12T04:13:55;70.43;;;56.30;;
47337;SDS011;33069;51.970;5.892;2023-08-12T04:16:41;78.60;;;55.42;;
47337;SDS011;33069;51.970;5.892;2023-08-12T04:19:27;94.05;;;60.55;;
47337;SDS011;33069;51.970;5.892;2023-08-12T04:22:13;69.13;;;53.90;;
47337;SDS011;33069;51.970;5.892;2023-08-12T04:24:59;90.00;;;61.60;;
47337;SDS011;33069;51.970;5.892;2023-08-12T04:27:45;103.97;;;67.35;;
47337;SDS011;33069;51.970;5.892;2023-08-12T04:30:32;67.53;;;54.10;;
47337;SDS011;33069;51.970;5.892;2023-08-12T04:33:18;91.90;;;63.35;;
47337;SDS011;33069;51.970;5.892;2023-08-12T04:36:07;100.60;;;65.72;;
47337;SDS011;33069;51.970;5.892;2023-08-12T04:38:53;87.95;;;65.57;;
47337;SDS011;33069;51.970;5.892;2023-08-12T04:41:39;99.72;;;71.43;;
47337;SDS011;33069;51.970;5.892;2023-08-12T04:44:25;99.82;;;66.72;;
47337;SDS011;33069;51.970;5.892;2023-08-12T04:47:11;99.95;;;65.45;;
47337;SDS011;33069;51.970;5.892;2023-08-12T04:49:57;84.85;;;61.20;;
47337;SDS011;33069;51.970;5.892;2023-08-12T04:52:43;105.03;;;65.75;;
47337;SDS011;33069;51.970;5.892;2023-08-12T04:55:29;84.93;;;58.65;;
47337;SDS011;33069;51.970;5.892;2023-08-12T04:58:15;98.07;;;65.65;;
47337;SDS011;33069;51.970;5.892;2023-08-12T05:01:01;84.40;;;61.47;;
47337;SDS011;33069;51.970;5.892;2023-08-12T05:03:48;93.57;;;63.45;;
47337;SDS011;33069;51.970;5.892;2023-08-12T05:06:34;76.07;;;54.70;;
47337;SDS011;33069;51.970;5.892;2023-08-12T05:09:20;73.88;;;56.75;;
47337;SDS011;33069;51.970;5.892;2023-08-12T05:12:06;68.35;;;52.97;;
47337;SDS011;33069;51.970;5.892;2023-08-12T05:14:52;75.80;;;56.05;;
47337;SDS011;33069;51.970;5.892;2023-08-12T05:17:38;75.15;;;55.58;;
47337;SDS011;33069;51.970;5.892;2023-08-12T05:20:24;79.95;;;56.47;;
47337;SDS011;33069;51.970;5.892;2023-08-12T05:23:10;76.63;;;56.92;;
47337;SDS011;33069;51.970;5.892;2023-08-12T05:25:56;64.93;;;50.53;;
47337;SDS011;33069;51.970;5.892;2023-08-12T05:28:42;86.82;;;61.78;;
47337;SDS011;33069;51.970;5.892;2023-08-12T05:31:28;60.60;;;49.17;;
47337;SDS011;33069;51.970;5.892;2023-08-12T05:34:14;90.45;;;65.13;;
47337;SDS011;33069;51.970;5.892;2023-08-12T05:37:00;86.80;;;64.75;;
47337;SDS011;33069;51.970;5.892;2023-08-12T05:39:47;77.55;;;59.03;;
47337;SDS011;33069;51.970;5.892;2023-08-12T05:42:33;88.78;;;58.13;;
47337;SDS011;33069;51.970;5.892;2023-08-12T05:45:19;83.75;;;58.38;;
47337;SDS011;33069;51.970;5.892;2023-08-12T05:48:05;80.05;;;58.00;;
47337;SDS011;33069;51.970;5.892;2023-08-12T05:50:51;76.85;;;55.55;;
47337;SDS011;33069;51.970;5.892;2023-08-12T05:53:37;84.43;;;58.15;;
47337;SDS011;33069;51.970;5.892;2023-08-12T05:56:24;90.70;;;59.47;;
47337;SDS011;33069;51.970;5.892;2023-08-12T05:59:09;83.25;;;56.28;;
47337;SDS011;33069;51.970;5.892;2023-08-12T06:01:55;68.50;;;48.78;;
47337;SDS011;33069;51.970;5.892;2023-08-12T06:04:41;59.13;;;44.50;;
47337;SDS011;33069;51.970;5.892;2023-08-12T06:07:27;68.03;;;47.85;;
47337;SDS011;33069;51.970;5.892;2023-08-12T06:10:13;62.58;;;43.50;;
47337;SDS011;33069;51.970;5.892;2023-08-12T06:12:59;61.63;;;41.65;;
47337;SDS011;33069;51.970;5.892;2023-08-12T06:15:45;56.33;;;42.30;;
47337;SDS011;33069;51.970;5.892;2023-08-12T06:18:32;60.92;;;45.10;;
47337;SDS011;33069;51.970;5.892;2023-08-12T06:21:18;48.25;;;36.90;;
47337;SDS011;33069;51.970;5.892;2023-08-12T06:24:04;69.53;;;45.13;;
47337;SDS011;33069;51.970;5.892;2023-08-12T06:26:50;62.47;;;41.03;;
47337;SDS011;33069;51.970;5.892;2023-08-12T06:29:36;60.10;;;38.88;;
47337;SDS011;33069;51.970;5.892;2023-08-12T06:32:22;38.90;;;31.65;;
47337;SDS011;33069;51.970;5.892;2023-08-12T06:35:08;32.53;;;26.30;;
47337;SDS011;33069;51.970;5.892;2023-08-12T06:37:55;30.38;;;25.38;;
47337;SDS011;33069;51.970;5.892;2023-08-12T06:40:40;36.17;;;26.70;;
47337;SDS011;33069;51.970;5.892;2023-08-12T06:43:26;35.97;;;23.55;;
47337;SDS011;33069;51.970;5.892;2023-08-12T06:46:12;29.55;;;22.95;;
47337;SDS011;33069;51.970;5.892;2023-08-12T06:48:58;26.88;;;20.52;;
47337;SDS011;33069;51.970;5.892;2023-08-12T06:51:45;35.38;;;25.30;;
47337;SDS011;33069;51.970;5.892;2023-08-12T06:54:30;52.38;;;29.98;;
47337;SDS011;33069;51.970;5.892;2023-08-12T06:57:17;32.47;;;24.33;;
47337;SDS011;33069;51.970;5.892;2023-08-12T07:00:03;28.48;;;22.55;;
47337;SDS011;33069;51.970;5.892;2023-08-12T07:02:50;31.63;;;24.30;;
47337;SDS011;33069;51.970;5.892;2023-08-12T07:05:36;35.00;;;24.02;;
47337;SDS011;33069;51.970;5.892;2023-08-12T07:08:22;30.63;;;22.48;;
47337;SDS011;33069;51.970;5.892;2023-08-12T07:11:08;30.05;;;23.95;;
47337;SDS011;33069;51.970;5.892;2023-08-12T07:13:54;30.65;;;22.48;;
47337;SDS011;33069;51.970;5.892;2023-08-12T07:16:40;30.63;;;21.90;;
47337;SDS011;33069;51.970;5.892;2023-08-12T07:19:26;28.02;;;22.02;;
47337;SDS011;33069;51.970;5.892;2023-08-12T07:22:12;27.33;;;22.30;;
47337;SDS011;33069;51.970;5.892;2023-08-12T07:24:58;25.95;;;20.33;;
47337;SDS011;33069;51.970;5.892;2023-08-12T07:27:45;33.28;;;24.92;;
47337;SDS011;33069;51.970;5.892;2023-08-12T07:30:31;30.23;;;25.80;;
47337;SDS011;33069;51.970;5.892;2023-08-12T07:33:20;25.55;;;21.83;;
47337;SDS011;33069;51.970;5.892;2023-08-12T07:36:06;28.13;;;23.20;;
47337;SDS011;33069;51.970;5.892;2023-08-12T07:38:52;31.33;;;24.65;;
47337;SDS011;33069;51.970;5.892;2023-08-12T07:41:38;24.90;;;22.35;;
47337;SDS011;33069;51.970;5.892;2023-08-12T07:44:24;29.08;;;24.67;;
47337;SDS011;33069;51.970;5.892;2023-08-12T07:47:10;32.13;;;25.83;;
47337;SDS011;33069;51.970;5.892;2023-08-12T07:49:56;32.10;;;25.35;;
47337;SDS011;33069;51.970;5.892;2023-08-12T07:52:42;27.80;;;22.83;;
47337;SDS011;33069;51.970;5.892;2023-08-12T07:55:28;31.98;;;24.92;;
47337;SDS011;33069;51.970;5.892;2023-08-12T07:58:15;31.05;;;25.50;;
47337;SDS011;33069;51.970;5.892;2023-08-12T08:01:01;41.88;;;28.95;;
47337;SDS011;33069;51.970;5.892;2023-08-12T08:03:47;23.92;;;19.70;;
47337;SDS011;33069;51.970;5.892;2023-08-12T08:06:32;30.50;;;23.08;;
47337;SDS011;33069;51.970;5.892;2023-08-12T08:09:18;23.58;;;20.63;;
47337;SDS011;33069;51.970;5.892;2023-08-12T08:12:05;20.38;;;18.02;;
47337;SDS011;33069;51.970;5.892;2023-08-12T08:14:53;20.33;;;17.42;;
47337;SDS011;33069;51.970;5.892;2023-08-12T08:17:39;24.52;;;18.05;;
47337;SDS011;33069;51.970;5.892;2023-08-12T08:20:24;17.00;;;15.30;;
47337;SDS011;33069;51.970;5.892;2023-08-12T08:23:10;21.20;;;17.45;;
47337;SDS011;33069;51.970;5.892;2023-08-12T08:25:56;16.52;;;14.82;;
47337;SDS011;33069;51.970;5.892;2023-08-12T08:28:42;16.17;;;13.65;;
47337;SDS011;33069;51.970;5.892;2023-08-12T08:31:28;12.80;;;11.65;;
47337;SDS011;33069;51.970;5.892;2023-08-12T08:34:15;16.75;;;15.15;;
47337;SDS011;33069;51.970;5.892;2023-08-12T08:37:01;13.82;;;11.73;;
47337;SDS011;33069;51.970;5.892;2023-08-12T08:39:47;13.88;;;12.40;;
47337;SDS011;33069;51.970;5.892;2023-08-12T08:42:33;14.60;;;13.07;;
47337;SDS011;33069;51.970;5.892;2023-08-12T08:45:20;13.75;;;12.23;;
47337;SDS011;33069;51.970;5.892;2023-08-12T08:48:08;11.68;;;10.57;;
47337;SDS011;33069;51.970;5.892;2023-08-12T08:50:56;10.77;;;9.90;;
47337;SDS011;33069;51.970;5.892;2023-08-12T08:53:43;12.98;;;11.73;;
47337;SDS011;33069;51.970;5.892;2023-08-12T08:56:29;15.45;;;14.00;;
47337;SDS011;33069;51.970;5.892;2023-08-12T08:59:18;12.57;;;11.57;;
47337;SDS011;33069;51.970;5.892;2023-08-12T09:02:04;12.57;;;11.57;;
47337;SDS011;33069;51.970;5.892;2023-08-12T09:04:52;17.15;;;15.68;;
47337;SDS011;33069;51.970;5.892;2023-08-12T09:07:40;24.23;;;22.60;;
47337;SDS011;33069;51.970;5.892;2023-08-12T09:10:27;20.13;;;18.65;;
47337;SDS011;33069;51.970;5.892;2023-08-12T09:13:14;19.25;;;17.65;;
47337;SDS011;33069;51.970;5.892;2023-08-12T09:16:03;15.85;;;14.65;;
47337;SDS011;33069;51.970;5.892;2023-08-12T09:18:53;14.93;;;13.73;;
47337;SDS011;33069;51.970;5.892;2023-08-12T09:21:43;11.60;;;10.77;;
47337;SDS011;33069;51.970;5.892;2023-08-12T09:24:29;12.95;;;11.90;;
47337;SDS011;33069;51.970;5.892;2023-08-12T09:27:16;69.28;;;65.32;;
47337;SDS011;33069;51.970;5.892;2023-08-12T09:30:03;13.27;;;12.27;;
47337;SDS011;33069;51.970;5.892;2023-08-12T09:33:00;12.25;;;11.25;;
47337;SDS011;33069;51.970;5.892;2023-08-12T09:35:49;17.88;;;16.67;;
47337;SDS011;33069;51.970;5.892;2023-08-12T09:38:35;10.15;;;9.27;;
47337;SDS011;33069;51.970;5.892;2023-08-12T09:41:22;8.00;;;7.50;;
47337;SDS011;33069;51.970;5.892;2023-08-12T09:44:09;10.80;;;10.20;;
47337;SDS011;33069;51.970;5.892;2023-08-12T09:46:58;278.00;;;260.17;;
47337;SDS011;33069;51.970;5.892;2023-08-12T09:49:44;7.55;;;7.05;;
47337;SDS011;33069;51.970;5.892;2023-08-12T09:52:30;44.70;;;42.08;;
47337;SDS011;33069;51.970;5.892;2023-08-12T09:55:16;6.85;;;6.45;;
47337;SDS011;33069;51.970;5.892;2023-08-12T09:58:05;8.95;;;8.45;;
47337;SDS011;33069;51.970;5.892;2023-08-12T10:00:53;8.45;;;7.95;;
47337;SDS011;33069;51.970;5.892;2023-08-12T10:03:39;9.27;;;8.48;;
47337;SDS011;33069;51.970;5.892;2023-08-12T10:06:27;9.35;;;8.65;;
47337;SDS011;33069;51.970;5.892;2023-08-12T10:09:14;28.88;;;27.27;;
47337;SDS011;33069;51.970;5.892;2023-08-12T10:12:01;8.45;;;7.95;;
47337;SDS011;33069;51.970;5.892;2023-08-12T10:14:48;7.75;;;7.35;;
47337;SDS011;33069;51.970;5.892;2023-08-12T10:17:34;9.55;;;9.05;;
47337;SDS011;33069;51.970;5.892;2023-08-12T10:20:21;7.97;;;7.35;;
47337;SDS011;33069;51.970;5.892;2023-08-12T10:23:09;7.35;;;6.85;;
47337;SDS011;33069;51.970;5.892;2023-08-12T10:26:00;9.10;;;8.60;;
47337;SDS011;33069;51.970;5.892;2023-08-12T10:28:49;11.15;;;10.55;;
47337;SDS011;33069;51.970;5.892;2023-08-12T10:31:36;27.17;;;25.67;;
47337;SDS011;33069;51.970;5.892;2023-08-12T10:34:24;13.63;;;12.80;;
47337;SDS011;33069;51.970;5.892;2023-08-12T10:37:10;12.77;;;11.88;;
47337;SDS011;33069;51.970;5.892;2023-08-12T10:39:56;22.95;;;21.52;;
47337;SDS011;33069;51.970;5.892;2023-08-12T10:42:44;11.05;;;10.13;;
47337;SDS011;33069;51.970;5.892;2023-08-12T10:45:41;14.27;;;13.27;;
47337;SDS011;33069;51.970;5.892;2023-08-12T10:48:39;16.77;;;15.55;;
47337;SDS011;33069;51.970;5.892;2023-08-12T10:51:49;11.35;;;10.43;;
47337;SDS011;33069;51.970;5.892;2023-08-12T10:54:37;13.77;;;12.75;;
47337;SDS011;33069;51.970;5.892;2023-08-12T10:57:44;12.93;;;12.02;;
47337;SDS011;33069;51.970;5.892;2023-08-12T11:00:30;18.48;;;17.13;;
47337;SDS011;33069;51.970;5.892;2023-08-12T11:03:16;14.52;;;13.27;;
47337;SDS011;33069;51.970;5.892;2023-08-12T11:06:02;58.75;;;55.22;;
47337;SDS011;33069;51.970;5.892;2023-08-12T11:08:54;10.07;;;9.18;;
47337;SDS011;33069;51.970;5.892;2023-08-12T11:11:41;15.02;;;13.65;;
47337;SDS011;33069;51.970;5.892;2023-08-12T11:14:27;14.73;;;13.18;;
47337;SDS011;33069;51.970;5.892;2023-08-12T11:17:14;12.23;;;11.32;;
47337;SDS011;33069;51.970;5.892;2023-08-12T11:20:00;13.13;;;12.02;;
47337;SDS011;33069;51.970;5.892;2023-08-12T11:22:49;16.63;;;15.18;;
47337;SDS011;33069;51.970;5.892;2023-08-12T11:25:40;12.77;;;11.82;;
47337;SDS011;33069;51.970;5.892;2023-08-12T11:28:28;13.40;;;12.32;;
47337;SDS011;33069;51.970;5.892;2023-08-12T11:31:14;13.40;;;12.20;;
47337;SDS011;33069;51.970;5.892;2023-08-12T11:34:01;13.20;;;12.05;;
47337;SDS011;33069;51.970;5.892;2023-08-12T11:36:47;28.85;;;27.00;;
47337;SDS011;33069;51.970;5.892;2023-08-12T11:39:33;14.60;;;13.40;;
47337;SDS011;33069;51.970;5.892;2023-08-12T11:42:19;13.60;;;12.60;;
47337;SDS011;33069;51.970;5.892;2023-08-12T11:45:06;15.35;;;13.77;;
47337;SDS011;33069;51.970;5.892;2023-08-12T11:47:53;55.40;;;52.13;;
47337;SDS011;33069;51.970;5.892;2023-08-12T11:50:39;27.10;;;24.92;;
47337;SDS011;33069;51.970;5.892;2023-08-12T11:53:25;21.17;;;19.77;;
47337;SDS011;33069;51.970;5.892;2023-08-12T11:56:11;15.38;;;13.95;;
47337;SDS011;33069;51.970;5.892;2023-08-12T11:58:57;22.85;;;20.95;;
47337;SDS011;33069;51.970;5.892;2023-08-12T12:01:48;25.80;;;24.02;;
47337;SDS011;33069;51.970;5.892;2023-08-12T12:04:35;19.15;;;17.48;;
47337;SDS011;33069;51.970;5.892;2023-08-12T12:07:21;21.65;;;19.77;;
47337;SDS011;33069;51.970;5.892;2023-08-12T12:10:13;16.45;;;14.88;;
47337;SDS011;33069;51.970;5.892;2023-08-12T12:13:04;27.13;;;25.17;;
47337;SDS011;33069;51.970;5.892;2023-08-12T12:15:50;18.58;;;17.13;;
47337;SDS011;33069;51.970;5.892;2023-08-12T12:18:38;29.10;;;27.02;;
47337;SDS011;33069;51.970;5.892;2023-08-12T12:21:24;19.40;;;17.90;;
47337;SDS011;33069;51.970;5.892;2023-08-12T12:24:10;19.80;;;17.55;;
47337;SDS011;33069;51.970;5.892;2023-08-12T12:26:56;17.45;;;15.07;;
47337;SDS011;33069;51.970;5.892;2023-08-12T12:29:42;24.63;;;22.48;;
47337;SDS011;33069;51.970;5.892;2023-08-12T12:32:28;16.45;;;15.07;;
47337;SDS011;33069;51.970;5.892;2023-08-12T12:35:14;17.38;;;15.80;;
47337;SDS011;33069;51.970;5.892;2023-08-12T12:38:01;17.20;;;15.95;;
47337;SDS011;33069;51.970;5.892;2023-08-12T12:40:47;20.10;;;18.23;;
47337;SDS011;33069;51.970;5.892;2023-08-12T12:43:33;18.02;;;16.52;;
47337;SDS011;33069;51.970;5.892;2023-08-12T12:46:19;17.88;;;16.05;;
47337;SDS011;33069;51.970;5.892;2023-08-12T12:49:05;18.88;;;17.08;;
47337;SDS011;33069;51.970;5.892;2023-08-12T12:51:51;18.02;;;16.17;;
47337;SDS011;33069;51.970;5.892;2023-08-12T12:54:37;18.20;;;16.42;;
47337;SDS011;33069;51.970;5.892;2023-08-12T12:57:23;18.20;;;16.40;;
47337;SDS011;33069;51.970;5.892;2023-08-12T13:00:10;19.33;;;17.40;;
47337;SDS011;33069;51.970;5.892;2023-08-12T13:02:57;23.70;;;21.90;;
47337;SDS011;33069;51.970;5.892;2023-08-12T13:05:43;18.42;;;16.52;;
47337;SDS011;33069;51.970;5.892;2023-08-12T13:08:29;17.30;;;15.85;;
47337;SDS011;33069;51.970;5.892;2023-08-12T13:11:18;18.67;;;17.13;;
47337;SDS011;33069;51.970;5.892;2023-08-12T13:14:04;17.55;;;15.75;;
47337;SDS011;33069;51.970;5.892;2023-08-12T13:16:50;18.15;;;16.65;;
47337;SDS011;33069;51.970;5.892;2023-08-12T13:19:36;18.67;;;16.83;;
47337;SDS011;33069;51.970;5.892;2023-08-12T13:22:22;17.98;;;16.33;;
47337;SDS011;33069;51.970;5.892;2023-08-12T13:25:08;17.98;;;16.27;;
47337;SDS011;33069;51.970;5.892;2023-08-12T13:27:54;16.75;;;15.40;;
47337;SDS011;33069;51.970;5.892;2023-08-12T13:30:40;18.83;;;16.83;;
47337;SDS011;33069;51.970;5.892;2023-08-12T13:33:26;18.73;;;16.85;;
47337;SDS011;33069;51.970;5.892;2023-08-12T13:36:12;17.67;;;15.98;;
47337;SDS011;33069;51.970;5.892;2023-08-12T13:38:58;18.92;;;17.33;;
47337;SDS011;33069;51.970;5.892;2023-08-12T13:41:44;18.40;;;16.70;;
47337;SDS011;33069;51.970;5.892;2023-08-12T13:44:30;21.45;;;17.83;;
47337;SDS011;33069;51.970;5.892;2023-08-12T13:47:16;21.60;;;19.30;;
47337;SDS011;33069;51.970;5.892;2023-08-12T13:50:02;20.38;;;18.38;;
47337;SDS011;33069;51.970;5.892;2023-08-12T13:52:49;20.48;;;18.60;;
47337;SDS011;33069;51.970;5.892;2023-08-12T13:55:35;20.83;;;19.08;;
47337;SDS011;33069;51.970;5.892;2023-08-12T13:58:21;22.83;;;21.13;;
47337;SDS011;33069;51.970;5.892;2023-08-12T14:01:07;23.58;;;21.95;;
47337;SDS011;33069;51.970;5.892;2023-08-12T14:03:54;17.90;;;16.33;;
47337;SDS011;33069;51.970;5.892;2023-08-12T14:06:40;20.33;;;18.38;;
47337;SDS011;33069;51.970;5.892;2023-08-12T14:09:25;24.35;;;17.42;;
47337;SDS011;33069;51.970;5.892;2023-08-12T14:12:11;22.30;;;20.20;;
47337;SDS011;33069;51.970;5.892;2023-08-12T14:14:58;19.30;;;17.67;;
47337;SDS011;33069;51.970;5.892;2023-08-12T14:17:44;32.97;;;30.50;;
47337;SDS011;33069;51.970;5.892;2023-08-12T14:20:30;18.67;;;16.83;;
47337;SDS011;33069;51.970;5.892;2023-08-12T14:23:16;18.13;;;16.63;;
47337;SDS011;33069;51.970;5.892;2023-08-12T14:26:02;17.52;;;16.02;;
47337;SDS011;33069;51.970;5.892;2023-08-12T14:28:48;18.40;;;16.50;;
47337;SDS011;33069;51.970;5.892;2023-08-12T14:31:34;16.67;;;15.05;;
47337;SDS011;33069;51.970;5.892;2023-08-12T14:34:20;15.20;;;13.65;;
47337;SDS011;33069;51.970;5.892;2023-08-12T14:37:06;15.25;;;13.88;;
47337;SDS011;33069;51.970;5.892;2023-08-12T14:39:53;19.77;;;14.82;;
47337;SDS011;33069;51.970;5.892;2023-08-12T14:42:39;15.02;;;13.43;;
47337;SDS011;33069;51.970;5.892;2023-08-12T14:45:25;17.92;;;13.10;;
47337;SDS011;33069;51.970;5.892;2023-08-12T14:48:11;15.90;;;14.40;;
47337;SDS011;33069;51.970;5.892;2023-08-12T14:51:00;17.52;;;15.88;;
47337;SDS011;33069;51.970;5.892;2023-08-12T14:53:46;17.13;;;14.07;;
47337;SDS011;33069;51.970;5.892;2023-08-12T14:56:33;16.65;;;13.00;;
47337;SDS011;33069;51.970;5.892;2023-08-12T14:59:19;19.13;;;17.38;;
47337;SDS011;33069;51.970;5.892;2023-08-12T15:02:05;18.02;;;13.75;;
47337;SDS011;33069;51.970;5.892;2023-08-12T15:04:51;20.83;;;14.93;;
47337;SDS011;33069;51.970;5.892;2023-08-12T15:07:38;16.33;;;14.75;;
47337;SDS011;33069;51.970;5.892;2023-08-12T15:10:24;15.63;;;13.82;;
47337;SDS011;33069;51.970;5.892;2023-08-12T15:13:10;15.35;;;13.38;;
47337;SDS011;33069;51.970;5.892;2023-08-12T15:15:56;21.33;;;14.77;;
47337;SDS011;33069;51.970;5.892;2023-08-12T15:18:42;16.98;;;13.85;;
47337;SDS011;33069;51.970;5.892;2023-08-12T15:21:29;17.70;;;14.88;;
47337;SDS011;33069;51.970;5.892;2023-08-12T15:24:15;14.48;;;13.13;;
47337;SDS011;33069;51.970;5.892;2023-08-12T15:27:01;38.28;;;35.17;;
47337;SDS011;33069;51.970;5.892;2023-08-12T15:29:47;21.38;;;19.52;;
47337;SDS011;33069;51.970;5.892;2023-08-12T15:32:33;15.50;;;13.93;;
47337;SDS011;33069;51.970;5.892;2023-08-12T15:35:20;16.00;;;12.70;;
47337;SDS011;33069;51.970;5.892;2023-08-12T15:38:06;13.30;;;11.90;;
47337;SDS011;33069;51.970;5.892;2023-08-12T15:40:52;14.88;;;12.98;;
47337;SDS011;33069;51.970;5.892;2023-08-12T15:43:38;14.23;;;12.88;;
47337;SDS011;33069;51.970;5.892;2023-08-12T15:46:24;14.07;;;12.75;;
47337;SDS011;33069;51.970;5.892;2023-08-12T15:49:10;14.13;;;12.85;;
47337;SDS011;33069;51.970;5.892;2023-08-12T15:51:56;45.45;;;42.35;;
47337;SDS011;33069;51.970;5.892;2023-08-12T15:54:42;93.90;;;88.70;;
47337;SDS011;33069;51.970;5.892;2023-08-12T15:57:28;16.20;;;14.32;;
47337;SDS011;33069;51.970;5.892;2023-08-12T16:00:14;14.88;;;12.60;;
47337;SDS011;33069;51.970;5.892;2023-08-12T16:03:00;13.80;;;12.40;;
47337;SDS011;33069;51.970;5.892;2023-08-12T16:05:47;17.65;;;13.68;;
47337;SDS011;33069;51.970;5.892;2023-08-12T16:08:34;17.25;;;15.40;;
47337;SDS011;33069;51.970;5.892;2023-08-12T16:11:20;15.45;;;13.85;;
47337;SDS011;33069;51.970;5.892;2023-08-12T16:14:06;15.18;;;13.82;;